Pagrindinis puslapis
METAR-TAF:

METAR-TAF

Oro uostai :

Sundsvalis-Herniosandas, Švedija

platuma: 62-32N, ilguma: 017-27E, Aukštis: 4 m

Dabartinis oras

Ataskaita buvo paskelbta 28 minutes, ne 09:20 UTC
Vėjas 5 kt iš Šiaurės Vakarų
Temperatūra -12°C
Drėgmė 92%
Slėgis 1007 hPa
Matomumas 10 km arba daugiau

METAR: ESNN 070920Z AUTO 32005KT 9999 NCD M12/M13 Q1007

Laikas: 10:48 (09:48 UTC)

Prognozė

Ataskaita buvo paskelbta 4 valandos ir 18 minutes, ne 05:30 UTC
Prognozė galioja nuo 07 metu 06 UTC su 07 metu 08 UTC
Vėjas 2 kt nuo kintamojo kryptimis
Matomumas 10 km arba daugiau
nėra debesų žemiau 1500 m ir nėra kamuolinių lietaus debesų
Tikimybė 40%
nuo 07 metu 06 UTC su 07 metu 08 UTC
Matomumas: 2000 m
Rūkas lopais

TAF: ESNN 070530Z 0706/0708 VRB02KT CAVOK PROB40 0706/0708 2000 BCFG

Orai ataskaitas ir orų prognozės (METAR, TAF).

turimą stotys yra geltonos ir raudonos taškus žemėlapyje.

Perkelti pele per norėdami pamatyti stoties vardą.

Tada spustelėkite, norėdami matyti oro stebėjimo ir prognozės.

Norėdami pakeisti žemėlapį: spustelėkite ant žalios mygtukų su juodo kryžiaus žemyn,; žalią mygtuką su brūkšneliu, jei norite nutolinti; arba žalių rodyklių gretimoms žemėlapius.


METAR-TAF: